Waseca, Minnesota
Current Conditions -  °F | °C
As of 12:54 PM on Friday 24 Oct 2014 (Local Time) from KACQ Reporting Station
Overcast Overcast  
Wind Chill: 59°   Ceiling: 1000
Heat Index: 59°   Visibility: 7mi
Dew Point: 50°   Wind: 8mph
Humidity: 72%   Direction: 210°SSW
Pressure: 29.89"   Gusts: NA
Location:  44.08°N, 93.51°W
Report Text: KACQ 241754Z AUTO 21007KT 7SM OVC010 15/10 A2989 RMK AO2
Loading
Personal Weather Stations






























Interactive Weather Map
Tropical Storm Tracking
New forecast layout! Learn more

10-Day Weather Forecast

Advertisements
Track Severe Weather on mobile